TimeCST,TemperatureF,Dew PointF,Humidity,Sea Level PressureIn,VisibilityMPH,Wind Direction,Wind SpeedMPH,Gust SpeedMPH,PrecipitationIn,Events,Conditions,WindDirDegrees,DateUTC
12:13 AM,21.2,19.4,93,29.95,10.0,SSE,6.9,-,N/A,,Mostly Cloudy,150,2013-02-17 06:13:00
12:33 AM,21.2,19.4,93,29.95,10.0,SE,5.8,-,N/A,,Scattered Clouds,140,2013-02-17 06:33:00
12:53 AM,21.2,21.2,100,29.95,7.0,SE,6.9,-,N/A,,Mostly Cloudy,140,2013-02-17 06:53:00
1:13 AM,24.8,21.2,86,29.95,10.0,South,6.9,-,N/A,,Overcast,170,2013-02-17 07:13:00
1:33 AM,24.8,23.0,93,29.94,10.0,South,9.2,-,N/A,,Overcast,180,2013-02-17 07:33:00
1:53 AM,24.8,21.2,86,29.94,10.0,South,9.2,-,N/A,,Overcast,170,2013-02-17 07:53:00
2:13 AM,24.8,21.2,86,29.94,10.0,South,8.1,-,N/A,,Overcast,170,2013-02-17 08:13:00
2:33 AM,24.8,21.2,86,29.93,10.0,South,8.1,-,N/A,,Overcast,170,2013-02-17 08:33:00
2:53 AM,26.6,23.0,86,29.93,10.0,South,9.2,-,N/A,,Overcast,170,2013-02-17 08:53:00
3:13 AM,24.8,23.0,93,29.92,10.0,South,10.4,-,N/A,,Overcast,180,2013-02-17 09:13:00
3:33 AM,24.8,21.2,86,29.91,10.0,South,10.4,-,N/A,,Mostly Cloudy,180,2013-02-17 09:33:00
3:53 AM,23.0,19.4,86,29.90,10.0,South,9.2,-,N/A,,Scattered Clouds,190,2013-02-17 09:53:00
4:13 AM,21.2,19.4,93,29.89,10.0,South,9.2,-,N/A,,Clear,190,2013-02-17 10:13:00
4:33 AM,21.2,19.4,93,29.89,10.0,SSW,8.1,-,N/A,,Clear,200,2013-02-17 10:33:00
4:53 AM,21.2,19.4,93,29.88,10.0,South,11.5,-,N/A,,Clear,190,2013-02-17 10:53:00
5:13 AM,21.2,19.4,93,29.87,10.0,South,11.5,-,N/A,,Clear,180,2013-02-17 11:13:00
5:53 AM,21.2,19.4,93,29.86,10.0,South,11.5,-,N/A,,Clear,180,2013-02-17 11:53:00
6:13 AM,21.2,19.4,93,29.86,10.0,South,11.5,-,N/A,,Clear,180,2013-02-17 12:13:00
6:33 AM,21.2,19.4,93,29.85,10.0,South,11.5,-,N/A,,Clear,170,2013-02-17 12:33:00
6:52 AM,21.2,19.4,93,29.84,10.0,South,10.4,-,N/A,,Clear,170,2013-02-17 12:52:00
7:13 AM,21.2,17.6,86,29.84,10.0,South,9.2,-,N/A,,Clear,170,2013-02-17 13:13:00
7:33 AM,21.2,17.6,86,29.83,10.0,South,9.2,-,N/A,,Clear,170,2013-02-17 13:33:00
7:53 AM,21.2,17.6,86,29.83,10.0,South,6.9,-,N/A,,Clear,170,2013-02-17 13:53:00
8:13 AM,21.2,17.6,86,29.82,10.0,South,10.4,-,N/A,,Clear,180,2013-02-17 14:13:00
8:33 AM,21.2,17.6,86,29.82,10.0,South,10.4,-,N/A,,Clear,180,2013-02-17 14:33:00
8:53 AM,21.2,19.4,93,29.81,10.0,South,9.2,-,N/A,,Clear,170,2013-02-17 14:53:00
9:13 AM,21.2,19.4,93,29.81,10.0,South,9.2,-,N/A,,Clear,180,2013-02-17 15:13:00
9:33 AM,21.2,19.4,93,29.80,10.0,South,12.7,-,N/A,,Clear,180,2013-02-17 15:33:00
9:53 AM,24.8,19.4,80,29.78,10.0,South,11.5,-,N/A,,Clear,170,2013-02-17 15:53:00
10:13 AM,24.8,21.2,86,29.78,10.0,South,15.0,-,N/A,,Clear,180,2013-02-17 16:13:00
10:33 AM,26.6,21.2,80,29.76,10.0,South,11.5,-,N/A,,Clear,170,2013-02-17 16:33:00
10:53 AM,26.6,21.2,80,29.75,10.0,South,12.7,-,N/A,,Clear,170,2013-02-17 16:53:00
11:13 AM,26.6,23.0,86,29.74,10.0,South,15.0,-,N/A,,Clear,170,2013-02-17 17:13:00
11:33 AM,28.4,24.8,86,29.72,10.0,South,13.8,-,N/A,,Clear,170,2013-02-17 17:33:00
11:53 AM,30.2,24.8,80,29.71,10.0,South,18.4,-,N/A,,Clear,170,2013-02-17 17:53:00
12:13 PM,32.0,26.6,80,29.70,10.0,South,17.3,21.9,N/A,,Clear,180,2013-02-17 18:13:00
12:33 PM,33.8,26.6,75,29.68,10.0,South,16.1,-,N/A,,Clear,170,2013-02-17 18:33:00
12:53 PM,33.8,28.4,81,29.66,10.0,South,17.3,21.9,N/A,,Clear,170,2013-02-17 18:53:00
1:13 PM,33.8,28.4,81,29.64,10.0,SSE,16.1,25.3,N/A,,Clear,160,2013-02-17 19:13:00
1:33 PM,35.6,28.4,75,29.63,10.0,SSE,17.3,23.0,N/A,,Clear,160,2013-02-17 19:33:00
1:53 PM,35.6,28.4,75,29.62,10.0,South,17.3,23.0,N/A,,Clear,170,2013-02-17 19:53:00
2:13 PM,37.4,30.2,75,29.60,10.0,South,17.3,23.0,N/A,,Clear,170,2013-02-17 20:13:00
2:33 PM,37.4,30.2,75,29.59,10.0,SSE,17.3,23.0,N/A,,Clear,160,2013-02-17 20:33:00
2:53 PM,37.4,30.2,75,29.57,10.0,SSE,17.3,23.0,N/A,,Clear,160,2013-02-17 20:53:00
3:13 PM,37.4,30.2,75,29.56,10.0,SSE,15.0,21.9,N/A,,Clear,160,2013-02-17 21:13:00
3:33 PM,37.4,30.2,75,29.55,10.0,SSE,16.1,-,N/A,,Clear,160,2013-02-17 21:33:00
3:53 PM,39.2,30.2,70,29.54,10.0,SSE,16.1,-,N/A,,Clear,160,2013-02-17 21:53:00
4:13 PM,39.2,30.2,70,29.54,10.0,South,13.8,20.7,N/A,,Clear,170,2013-02-17 22:13:00
4:33 PM,39.2,30.2,70,29.54,10.0,South,12.7,-,N/A,,Clear,170,2013-02-17 22:33:00
4:53 PM,39.2,30.2,70,29.54,10.0,SSE,13.8,-,N/A,,Clear,160,2013-02-17 22:53:00
5:13 PM,39.2,30.2,70,29.52,10.0,SSE,16.1,-,N/A,,Clear,160,2013-02-17 23:13:00
5:33 PM,39.2,30.2,70,29.52,10.0,South,13.8,18.4,N/A,,Clear,170,2013-02-17 23:33:00
5:53 PM,39.2,30.2,70,29.51,10.0,SSE,13.8,-,N/A,,Clear,160,2013-02-17 23:53:00
6:13 PM,39.2,30.2,70,29.51,10.0,SSE,11.5,-,N/A,,Clear,160,2013-02-18 00:13:00
6:33 PM,39.2,30.2,70,29.50,10.0,South,15.0,-,N/A,,Clear,170,2013-02-18 00:33:00
7:13 PM,37.4,30.2,75,29.50,10.0,South,16.1,-,N/A,,Clear,170,2013-02-18 01:13:00
7:33 PM,37.4,30.2,75,29.50,10.0,South,15.0,19.6,N/A,,Clear,170,2013-02-18 01:33:00
7:53 PM,37.4,30.2,75,29.49,10.0,South,17.3,-,N/A,,Clear,180,2013-02-18 01:53:00
8:13 PM,37.4,30.2,75,29.49,10.0,South,16.1,-,N/A,,Clear,190,2013-02-18 02:13:00
8:34 PM,37.4,30.2,75,29.49,10.0,South,17.3,21.9,N/A,,Clear,190,2013-02-18 02:34:00
8:53 PM,37.4,30.2,75,29.50,10.0,SSW,13.8,-,N/A,,Clear,200,2013-02-18 02:53:00
9:13 PM,37.4,30.2,75,29.50,10.0,SSW,12.7,-,N/A,,Clear,210,2013-02-18 03:13:00
9:33 PM,37.4,30.2,75,29.50,10.0,SSW,15.0,-,N/A,,Clear,200,2013-02-18 03:33:00
9:53 PM,37.4,30.2,75,29.51,10.0,SW,10.4,-,N/A,,Clear,220,2013-02-18 03:53:00
10:13 PM,35.6,30.2,81,29.50,10.0,SW,10.4,-,N/A,,Clear,220,2013-02-18 04:13:00
10:33 PM,35.6,30.2,81,29.51,10.0,SW,10.4,-,N/A,,Clear,220,2013-02-18 04:33:00
10:53 PM,35.6,30.2,81,29.52,10.0,WSW,10.4,-,N/A,,Clear,240,2013-02-18 04:53:00
11:13 PM,33.8,30.2,87,29.52,10.0,West,8.1,-,N/A,,Clear,260,2013-02-18 05:13:00
11:33 PM,35.6,30.2,81,29.52,10.0,West,8.1,-,N/A,,Clear,260,2013-02-18 05:33:00
11:53 PM,35.6,32.0,87,29.52,10.0,WNW,11.5,-,N/A,,Clear,300,2013-02-18 05:53:00